sensor_id;sensor_type;location;lat;lon;timestamp;temperature;humidity
10443;DHT22;5269;51.146;16.986;2023-04-15T00:02:20;10.40;99.90
10443;DHT22;5269;51.146;16.986;2023-04-15T00:04:47;10.40;99.90
10443;DHT22;5269;51.146;16.986;2023-04-15T00:07:14;10.40;99.90
10443;DHT22;5269;51.146;16.986;2023-04-15T00:09:42;10.50;99.90
10443;DHT22;5269;51.146;16.986;2023-04-15T00:12:10;10.50;99.90
10443;DHT22;5269;51.146;16.986;2023-04-15T00:14:38;10.60;99.90
10443;DHT22;5269;51.146;16.986;2023-04-15T00:17:05;10.50;99.90
10443;DHT22;5269;51.146;16.986;2023-04-15T00:19:32;10.60;99.90
10443;DHT22;5269;51.146;16.986;2023-04-15T00:21:59;10.60;99.90
10443;DHT22;5269;51.146;16.986;2023-04-15T00:24:26;10.60;99.90
10443;DHT22;5269;51.146;16.986;2023-04-15T00:26:53;10.50;99.90
10443;DHT22;5269;51.146;16.986;2023-04-15T00:29:20;10.50;99.90
10443;DHT22;5269;51.146;16.986;2023-04-15T00:31:48;10.50;99.90
10443;DHT22;5269;51.146;16.986;2023-04-15T00:34:15;10.60;99.90
10443;DHT22;5269;51.146;16.986;2023-04-15T00:36:42;10.50;99.90
10443;DHT22;5269;51.146;16.986;2023-04-15T00:39:09;10.50;99.90
10443;DHT22;5269;51.146;16.986;2023-04-15T00:41:36;10.60;99.90
10443;DHT22;5269;51.146;16.986;2023-04-15T00:44:05;10.50;99.90
10443;DHT22;5269;51.146;16.986;2023-04-15T00:46:35;10.60;99.90
10443;DHT22;5269;51.146;16.986;2023-04-15T00:49:05;10.50;99.90
10443;DHT22;5269;51.146;16.986;2023-04-15T00:51:32;10.40;99.90
10443;DHT22;5269;51.146;16.986;2023-04-15T00:54:01;10.40;99.90
10443;DHT22;5269;51.146;16.986;2023-04-15T00:56:29;10.40;99.90
10443;DHT22;5269;51.146;16.986;2023-04-15T00:58:56;10.40;99.90
10443;DHT22;5269;51.146;16.986;2023-04-15T01:01:25;10.40;99.90
10443;DHT22;5269;51.146;16.986;2023-04-15T01:03:55;10.50;99.90
10443;DHT22;5269;51.146;16.986;2023-04-15T01:06:23;10.40;99.90
10443;DHT22;5269;51.146;16.986;2023-04-15T01:08:52;10.40;99.90
10443;DHT22;5269;51.146;16.986;2023-04-15T01:11:19;10.50;99.90
10443;DHT22;5269;51.146;16.986;2023-04-15T01:13:46;10.50;99.90
10443;DHT22;5269;51.146;16.986;2023-04-15T01:16:13;10.50;99.90
10443;DHT22;5269;51.146;16.986;2023-04-15T01:18:41;10.50;99.90
10443;DHT22;5269;51.146;16.986;2023-04-15T01:21:08;10.50;99.90
10443;DHT22;5269;51.146;16.986;2023-04-15T01:23:37;10.50;99.90
10443;DHT22;5269;51.146;16.986;2023-04-15T01:26:06;10.50;99.90
10443;DHT22;5269;51.146;16.986;2023-04-15T01:28:33;10.50;99.90
10443;DHT22;5269;51.146;16.986;2023-04-15T01:31:07;10.50;99.90
10443;DHT22;5269;51.146;16.986;2023-04-15T01:33:34;10.50;99.90
10443;DHT22;5269;51.146;16.986;2023-04-15T01:36:01;10.50;99.90
10443;DHT22;5269;51.146;16.986;2023-04-15T01:38:29;10.50;99.90
10443;DHT22;5269;51.146;16.986;2023-04-15T01:40:56;10.60;99.90
10443;DHT22;5269;51.146;16.986;2023-04-15T01:43:25;10.60;99.90
10443;DHT22;5269;51.146;16.986;2023-04-15T01:45:52;10.60;99.90
10443;DHT22;5269;51.146;16.986;2023-04-15T01:48:20;10.50;99.90
10443;DHT22;5269;51.146;16.986;2023-04-15T01:50:47;10.50;99.90
10443;DHT22;5269;51.146;16.986;2023-04-15T01:53:14;10.60;99.90
10443;DHT22;5269;51.146;16.986;2023-04-15T01:55:41;10.50;99.90
10443;DHT22;5269;51.146;16.986;2023-04-15T01:58:08;10.50;99.90
10443;DHT22;5269;51.146;16.986;2023-04-15T02:00:36;10.50;99.90
10443;DHT22;5269;51.146;16.986;2023-04-15T02:03:03;10.50;99.90
10443;DHT22;5269;51.146;16.986;2023-04-15T02:05:31;10.50;99.90
10443;DHT22;5269;51.146;16.986;2023-04-15T02:07:58;10.50;99.90
10443;DHT22;5269;51.146;16.986;2023-04-15T02:10:25;10.60;99.90
10443;DHT22;5269;51.146;16.986;2023-04-15T02:12:52;10.60;99.90
10443;DHT22;5269;51.146;16.986;2023-04-15T02:15:19;10.60;99.90
10443;DHT22;5269;51.146;16.986;2023-04-15T02:17:48;10.60;99.90
10443;DHT22;5269;51.146;16.986;2023-04-15T02:20:18;10.60;99.90
10443;DHT22;5269;51.146;16.986;2023-04-15T02:22:45;10.60;99.90
10443;DHT22;5269;51.146;16.986;2023-04-15T02:25:13;10.60;99.90
10443;DHT22;5269;51.146;16.986;2023-04-15T02:27:41;10.60;99.90
10443;DHT22;5269;51.146;16.986;2023-04-15T02:30:08;10.60;99.90
10443;DHT22;5269;51.146;16.986;2023-04-15T02:32:35;10.60;99.90
10443;DHT22;5269;51.146;16.986;2023-04-15T02:35:05;10.50;99.90
10443;DHT22;5269;51.146;16.986;2023-04-15T02:37:35;10.50;99.90
10443;DHT22;5269;51.146;16.986;2023-04-15T02:40:07;10.50;99.90
10443;DHT22;5269;51.146;16.986;2023-04-15T02:42:36;10.40;99.90
10443;DHT22;5269;51.146;16.986;2023-04-15T02:45:04;10.30;99.90
10443;DHT22;5269;51.146;16.986;2023-04-15T02:47:31;10.30;99.90
10443;DHT22;5269;51.146;16.986;2023-04-15T02:49:58;10.20;99.90
10443;DHT22;5269;51.146;16.986;2023-04-15T02:52:27;10.10;99.90
10443;DHT22;5269;51.146;16.986;2023-04-15T02:54:54;10.10;99.90
10443;DHT22;5269;51.146;16.986;2023-04-15T02:57:25;10.10;99.90
10443;DHT22;5269;51.146;16.986;2023-04-15T02:59:52;10.10;99.90
10443;DHT22;5269;51.146;16.986;2023-04-15T03:02:19;10.00;99.90
10443;DHT22;5269;51.146;16.986;2023-04-15T03:04:46;10.00;99.90
10443;DHT22;5269;51.146;16.986;2023-04-15T03:07:13;10.00;99.90
10443;DHT22;5269;51.146;16.986;2023-04-15T03:09:41;10.00;99.90
10443;DHT22;5269;51.146;16.986;2023-04-15T03:12:09;10.10;99.90
10443;DHT22;5269;51.146;16.986;2023-04-15T03:14:35;10.00;99.90
10443;DHT22;5269;51.146;16.986;2023-04-15T03:17:02;10.00;99.90
10443;DHT22;5269;51.146;16.986;2023-04-15T03:19:29;9.90;99.90
10443;DHT22;5269;51.146;16.986;2023-04-15T03:21:56;10.00;99.90
10443;DHT22;5269;51.146;16.986;2023-04-15T03:24:23;10.00;99.90
10443;DHT22;5269;51.146;16.986;2023-04-15T03:26:51;10.00;99.90
10443;DHT22;5269;51.146;16.986;2023-04-15T03:29:19;9.80;99.90
10443;DHT22;5269;51.146;16.986;2023-04-15T03:31:46;9.80;99.90
10443;DHT22;5269;51.146;16.986;2023-04-15T03:34:13;9.80;99.90
10443;DHT22;5269;51.146;16.986;2023-04-15T03:36:40;9.70;99.90
10443;DHT22;5269;51.146;16.986;2023-04-15T03:39:07;9.60;99.90
10443;DHT22;5269;51.146;16.986;2023-04-15T03:41:34;9.60;99.90
10443;DHT22;5269;51.146;16.986;2023-04-15T03:44:02;9.60;99.90
10443;DHT22;5269;51.146;16.986;2023-04-15T03:46:29;9.50;99.90
10443;DHT22;5269;51.146;16.986;2023-04-15T03:48:55;9.50;99.90
10443;DHT22;5269;51.146;16.986;2023-04-15T03:51:22;9.50;99.90
10443;DHT22;5269;51.146;16.986;2023-04-15T03:53:49;9.40;99.90
10443;DHT22;5269;51.146;16.986;2023-04-15T03:56:16;9.40;99.90
10443;DHT22;5269;51.146;16.986;2023-04-15T03:58:43;9.30;99.90
10443;DHT22;5269;51.146;16.986;2023-04-15T04:01:12;9.30;99.90
10443;DHT22;5269;51.146;16.986;2023-04-15T04:03:38;9.20;99.90
10443;DHT22;5269;51.146;16.986;2023-04-15T04:06:05;9.00;99.90
10443;DHT22;5269;51.146;16.986;2023-04-15T04:08:32;9.00;99.90
10443;DHT22;5269;51.146;16.986;2023-04-15T04:10:59;9.00;99.90
10443;DHT22;5269;51.146;16.986;2023-04-15T04:13:26;8.90;99.90
10443;DHT22;5269;51.146;16.986;2023-04-15T04:15:53;8.90;99.90
10443;DHT22;5269;51.146;16.986;2023-04-15T04:18:21;8.80;99.90
10443;DHT22;5269;51.146;16.986;2023-04-15T04:20:48;8.70;99.90
10443;DHT22;5269;51.146;16.986;2023-04-15T04:23:15;8.70;99.90
10443;DHT22;5269;51.146;16.986;2023-04-15T04:25:42;8.70;99.90
10443;DHT22;5269;51.146;16.986;2023-04-15T04:28:09;8.70;99.90
10443;DHT22;5269;51.146;16.986;2023-04-15T04:30:36;8.60;99.90
10443;DHT22;5269;51.146;16.986;2023-04-15T04:33:03;8.60;99.90
10443;DHT22;5269;51.146;16.986;2023-04-15T04:35:32;8.70;99.90
10443;DHT22;5269;51.146;16.986;2023-04-15T04:38:02;8.60;99.90
10443;DHT22;5269;51.146;16.986;2023-04-15T04:40:29;8.50;99.90
10443;DHT22;5269;51.146;16.986;2023-04-15T04:42:56;8.50;99.90
10443;DHT22;5269;51.146;16.986;2023-04-15T04:45:23;8.50;99.90
10443;DHT22;5269;51.146;16.986;2023-04-15T04:47:49;8.50;99.90
10443;DHT22;5269;51.146;16.986;2023-04-15T04:50:16;8.50;99.90
10443;DHT22;5269;51.146;16.986;2023-04-15T04:52:45;8.50;99.90
10443;DHT22;5269;51.146;16.986;2023-04-15T04:55:11;8.50;99.90
10443;DHT22;5269;51.146;16.986;2023-04-15T04:57:38;8.50;99.90
10443;DHT22;5269;51.146;16.986;2023-04-15T05:00:06;8.50;99.90
10443;DHT22;5269;51.146;16.986;2023-04-15T05:02:34;8.50;99.90
10443;DHT22;5269;51.146;16.986;2023-04-15T05:05:01;8.50;99.90
10443;DHT22;5269;51.146;16.986;2023-04-15T05:07:28;8.50;99.90
10443;DHT22;5269;51.146;16.986;2023-04-15T05:09:56;8.40;99.90
10443;DHT22;5269;51.146;16.986;2023-04-15T05:12:24;8.40;99.90
10443;DHT22;5269;51.146;16.986;2023-04-15T05:14:51;8.40;99.90
10443;DHT22;5269;51.146;16.986;2023-04-15T05:17:18;8.30;99.90
10443;DHT22;5269;51.146;16.986;2023-04-15T05:19:45;8.30;99.90
10443;DHT22;5269;51.146;16.986;2023-04-15T05:22:12;8.30;99.90
10443;DHT22;5269;51.146;16.986;2023-04-15T05:24:39;8.40;99.90
10443;DHT22;5269;51.146;16.986;2023-04-15T05:27:07;8.20;99.90
10443;DHT22;5269;51.146;16.986;2023-04-15T05:29:36;8.20;99.90
10443;DHT22;5269;51.146;16.986;2023-04-15T05:32:03;8.20;99.90
10443;DHT22;5269;51.146;16.986;2023-04-15T05:34:30;8.10;99.90
10443;DHT22;5269;51.146;16.986;2023-04-15T05:36:57;8.10;99.90
10443;DHT22;5269;51.146;16.986;2023-04-15T05:39:23;8.20;99.90
10443;DHT22;5269;51.146;16.986;2023-04-15T05:41:51;8.20;99.90
10443;DHT22;5269;51.146;16.986;2023-04-15T05:44:19;8.10;99.90
10443;DHT22;5269;51.146;16.986;2023-04-15T05:46:46;8.30;99.90
10443;DHT22;5269;51.146;16.986;2023-04-15T05:49:13;8.20;99.90
10443;DHT22;5269;51.146;16.986;2023-04-15T05:51:40;8.10;99.90
10443;DHT22;5269;51.146;16.986;2023-04-15T05:54:07;8.20;99.90
10443;DHT22;5269;51.146;16.986;2023-04-15T05:56:33;8.30;99.90
10443;DHT22;5269;51.146;16.986;2023-04-15T05:59:00;8.40;99.90
10443;DHT22;5269;51.146;16.986;2023-04-15T06:01:29;8.40;99.90
10443;DHT22;5269;51.146;16.986;2023-04-15T06:03:56;8.40;99.90
10443;DHT22;5269;51.146;16.986;2023-04-15T06:06:23;8.40;99.90
10443;DHT22;5269;51.146;16.986;2023-04-15T06:08:51;8.60;99.90
10443;DHT22;5269;51.146;16.986;2023-04-15T06:11:20;8.70;99.90
10443;DHT22;5269;51.146;16.986;2023-04-15T06:13:47;8.50;99.90
10443;DHT22;5269;51.146;16.986;2023-04-15T06:16:14;8.60;99.90
10443;DHT22;5269;51.146;16.986;2023-04-15T06:18:43;8.70;99.90
10443;DHT22;5269;51.146;16.986;2023-04-15T06:21:10;8.60;99.90
10443;DHT22;5269;51.146;16.986;2023-04-15T06:23:37;8.50;99.90
10443;DHT22;5269;51.146;16.986;2023-04-15T06:26:05;8.40;99.90
10443;DHT22;5269;51.146;16.986;2023-04-15T06:28:32;8.30;99.90
10443;DHT22;5269;51.146;16.986;2023-04-15T06:30:59;8.50;99.90
10443;DHT22;5269;51.146;16.986;2023-04-15T06:33:27;8.50;99.90
10443;DHT22;5269;51.146;16.986;2023-04-15T06:35:55;8.60;99.90
10443;DHT22;5269;51.146;16.986;2023-04-15T06:38:22;8.50;99.90
10443;DHT22;5269;51.146;16.986;2023-04-15T06:40:49;8.50;99.90
10443;DHT22;5269;51.146;16.986;2023-04-15T06:43:16;8.40;99.90
10443;DHT22;5269;51.146;16.986;2023-04-15T06:45:43;8.40;99.90
10443;DHT22;5269;51.146;16.986;2023-04-15T06:48:11;8.50;99.90
10443;DHT22;5269;51.146;16.986;2023-04-15T06:50:38;8.40;99.90
10443;DHT22;5269;51.146;16.986;2023-04-15T06:53:07;8.40;99.90
10443;DHT22;5269;51.146;16.986;2023-04-15T06:55:34;8.40;99.90
10443;DHT22;5269;51.146;16.986;2023-04-15T06:58:01;8.40;99.90
10443;DHT22;5269;51.146;16.986;2023-04-15T07:00:27;8.40;99.90
10443;DHT22;5269;51.146;16.986;2023-04-15T07:02:55;8.60;99.90
10443;DHT22;5269;51.146;16.986;2023-04-15T07:05:22;8.80;99.90
10443;DHT22;5269;51.146;16.986;2023-04-15T07:07:49;8.70;99.90
10443;DHT22;5269;51.146;16.986;2023-04-15T07:10:19;9.00;99.90
10443;DHT22;5269;51.146;16.986;2023-04-15T07:12:47;9.00;99.90
10443;DHT22;5269;51.146;16.986;2023-04-15T07:15:15;8.80;99.90
10443;DHT22;5269;51.146;16.986;2023-04-15T07:17:42;9.00;99.90
10443;DHT22;5269;51.146;16.986;2023-04-15T07:20:09;9.10;99.90
10443;DHT22;5269;51.146;16.986;2023-04-15T07:22:37;9.10;1.00
10443;DHT22;5269;51.146;16.986;2023-04-15T07:25:05;8.90;99.90
10443;DHT22;5269;51.146;16.986;2023-04-15T07:27:33;8.90;1.00
10443;DHT22;5269;51.146;16.986;2023-04-15T07:30:00;9.00;99.90
10443;DHT22;5269;51.146;16.986;2023-04-15T07:32:27;9.00;1.00
10443;DHT22;5269;51.146;16.986;2023-04-15T07:34:54;9.10;1.00
10443;DHT22;5269;51.146;16.986;2023-04-15T07:37:21;9.20;1.00
10443;DHT22;5269;51.146;16.986;2023-04-15T07:39:48;9.40;99.90
10443;DHT22;5269;51.146;16.986;2023-04-15T07:42:15;9.50;99.90
10443;DHT22;5269;51.146;16.986;2023-04-15T07:44:44;9.60;1.00
10443;DHT22;5269;51.146;16.986;2023-04-15T07:47:11;9.50;1.00
10443;DHT22;5269;51.146;16.986;2023-04-15T07:49:38;9.40;1.00
10443;DHT22;5269;51.146;16.986;2023-04-15T07:52:05;9.40;95.40
10443;DHT22;5269;51.146;16.986;2023-04-15T07:54:31;9.50;99.90
10443;DHT22;5269;51.146;16.986;2023-04-15T07:56:58;9.60;1.00
10443;DHT22;5269;51.146;16.986;2023-04-15T07:59:26;9.80;99.90
10443;DHT22;5269;51.146;16.986;2023-04-15T08:01:55;10.20;99.90
10443;DHT22;5269;51.146;16.986;2023-04-15T08:04:23;10.50;1.00
10443;DHT22;5269;51.146;16.986;2023-04-15T08:06:49;10.60;99.90
10443;DHT22;5269;51.146;16.986;2023-04-15T08:09:17;10.60;42.00
10443;DHT22;5269;51.146;16.986;2023-04-15T08:11:44;10.70;1.00
10443;DHT22;5269;51.146;16.986;2023-04-15T08:14:11;10.80;1.00
10443;DHT22;5269;51.146;16.986;2023-04-15T08:16:38;10.90;1.00
10443;DHT22;5269;51.146;16.986;2023-04-15T08:19:06;10.50;1.00
10443;DHT22;5269;51.146;16.986;2023-04-15T08:21:33;10.40;1.00
10443;DHT22;5269;51.146;16.986;2023-04-15T08:24:01;10.30;1.00
10443;DHT22;5269;51.146;16.986;2023-04-15T08:26:28;10.10;1.00
10443;DHT22;5269;51.146;16.986;2023-04-15T08:28:55;10.40;1.00
10443;DHT22;5269;51.146;16.986;2023-04-15T08:31:22;10.80;1.00
10443;DHT22;5269;51.146;16.986;2023-04-15T08:33:49;10.60;1.00
10443;DHT22;5269;51.146;16.986;2023-04-15T08:36:19;11.00;1.00
10443;DHT22;5269;51.146;16.986;2023-04-15T08:38:46;11.20;99.90
10443;DHT22;5269;51.146;16.986;2023-04-15T08:41:20;11.20;99.90
10443;DHT22;5269;51.146;16.986;2023-04-15T08:43:52;11.60;99.90
10443;DHT22;5269;51.146;16.986;2023-04-15T08:46:20;11.60;99.90
10443;DHT22;5269;51.146;16.986;2023-04-15T08:48:48;11.70;99.90
10443;DHT22;5269;51.146;16.986;2023-04-15T08:51:16;12.00;82.90
10443;DHT22;5269;51.146;16.986;2023-04-15T08:53:45;12.20;1.00
10443;DHT22;5269;51.146;16.986;2023-04-15T08:56:14;12.50;1.00
10443;DHT22;5269;51.146;16.986;2023-04-15T08:58:42;12.90;1.00
10443;DHT22;5269;51.146;16.986;2023-04-15T09:01:10;12.80;1.00
10443;DHT22;5269;51.146;16.986;2023-04-15T09:03:38;12.80;1.00
10443;DHT22;5269;51.146;16.986;2023-04-15T09:06:05;12.60;1.00
10443;DHT22;5269;51.146;16.986;2023-04-15T09:08:32;12.70;1.00
10443;DHT22;5269;51.146;16.986;2023-04-15T09:11:02;12.80;1.00
10443;DHT22;5269;51.146;16.986;2023-04-15T09:13:29;12.70;1.00
10443;DHT22;5269;51.146;16.986;2023-04-15T09:15:56;12.90;1.00
10443;DHT22;5269;51.146;16.986;2023-04-15T09:18:28;12.40;1.00
10443;DHT22;5269;51.146;16.986;2023-04-15T09:20:55;12.60;1.00
10443;DHT22;5269;51.146;16.986;2023-04-15T09:23:22;13.10;1.00
10443;DHT22;5269;51.146;16.986;2023-04-15T09:25:49;12.80;1.00
10443;DHT22;5269;51.146;16.986;2023-04-15T09:28:24;12.80;1.00
10443;DHT22;5269;51.146;16.986;2023-04-15T09:30:54;13.20;1.00
10443;DHT22;5269;51.146;16.986;2023-04-15T09:33:22;13.00;1.00
10443;DHT22;5269;51.146;16.986;2023-04-15T09:35:57;13.30;1.00
10443;DHT22;5269;51.146;16.986;2023-04-15T09:38:25;13.40;1.00
10443;DHT22;5269;51.146;16.986;2023-04-15T09:40:52;13.60;1.00
10443;DHT22;5269;51.146;16.986;2023-04-15T09:43:19;13.20;1.00
10443;DHT22;5269;51.146;16.986;2023-04-15T09:45:52;13.00;1.00
10443;DHT22;5269;51.146;16.986;2023-04-15T09:48:20;12.90;1.00
10443;DHT22;5269;51.146;16.986;2023-04-15T09:50:48;12.90;1.00
10443;DHT22;5269;51.146;16.986;2023-04-15T09:53:19;13.10;39.50
10443;DHT22;5269;51.146;16.986;2023-04-15T09:55:49;13.30;1.00
10443;DHT22;5269;51.146;16.986;2023-04-15T09:58:20;13.40;1.00
10443;DHT22;5269;51.146;16.986;2023-04-15T10:00:50;13.10;1.00
10443;DHT22;5269;51.146;16.986;2023-04-15T10:03:19;13.10;1.00
10443;DHT22;5269;51.146;16.986;2023-04-15T10:05:48;13.40;1.00
10443;DHT22;5269;51.146;16.986;2023-04-15T10:08:17;13.70;1.00
10443;DHT22;5269;51.146;16.986;2023-04-15T10:10:45;13.90;1.00
10443;DHT22;5269;51.146;16.986;2023-04-15T10:13:13;13.50;1.00
10443;DHT22;5269;51.146;16.986;2023-04-15T10:15:43;13.30;1.00
10443;DHT22;5269;51.146;16.986;2023-04-15T10:18:15;13.50;1.00
10443;DHT22;5269;51.146;16.986;2023-04-15T10:20:43;13.70;1.00
10443;DHT22;5269;51.146;16.986;2023-04-15T10:23:11;13.40;1.00
10443;DHT22;5269;51.146;16.986;2023-04-15T10:25:38;13.20;1.00
10443;DHT22;5269;51.146;16.986;2023-04-15T10:28:06;13.40;1.00
10443;DHT22;5269;51.146;16.986;2023-04-15T10:30:33;13.80;1.00
10443;DHT22;5269;51.146;16.986;2023-04-15T10:33:01;13.90;1.00
10443;DHT22;5269;51.146;16.986;2023-04-15T10:35:31;13.70;1.00
10443;DHT22;5269;51.146;16.986;2023-04-15T10:37:58;13.60;1.00
10443;DHT22;5269;51.146;16.986;2023-04-15T10:40:28;12.90;1.00
10443;DHT22;5269;51.146;16.986;2023-04-15T10:42:57;13.40;1.00
10443;DHT22;5269;51.146;16.986;2023-04-15T10:45:31;13.80;1.00
10443;DHT22;5269;51.146;16.986;2023-04-15T10:48:01;14.10;1.00
10443;DHT22;5269;51.146;16.986;2023-04-15T10:50:31;14.40;1.00
10443;DHT22;5269;51.146;16.986;2023-04-15T10:53:01;14.50;1.00
10443;DHT22;5269;51.146;16.986;2023-04-15T10:55:31;14.60;1.00
10443;DHT22;5269;51.146;16.986;2023-04-15T10:58:00;14.40;1.00
10443;DHT22;5269;51.146;16.986;2023-04-15T11:00:28;14.50;1.00
10443;DHT22;5269;51.146;16.986;2023-04-15T11:02:57;14.10;1.00
10443;DHT22;5269;51.146;16.986;2023-04-15T11:05:50;14.20;1.00
10443;DHT22;5269;51.146;16.986;2023-04-15T11:08:17;13.70;1.00
10443;DHT22;5269;51.146;16.986;2023-04-15T11:10:53;13.60;1.00
10443;DHT22;5269;51.146;16.986;2023-04-15T11:13:25;14.10;1.00
10443;DHT22;5269;51.146;16.986;2023-04-15T11:16:01;14.30;1.00
10443;DHT22;5269;51.146;16.986;2023-04-15T11:18:32;14.10;1.00
10443;DHT22;5269;51.146;16.986;2023-04-15T11:21:03;14.10;1.00
10443;DHT22;5269;51.146;16.986;2023-04-15T11:23:35;14.00;1.00
10443;DHT22;5269;51.146;16.986;2023-04-15T11:26:04;14.00;1.00
10443;DHT22;5269;51.146;16.986;2023-04-15T11:28:34;13.90;1.00
10443;DHT22;5269;51.146;16.986;2023-04-15T11:31:07;13.80;1.00
10443;DHT22;5269;51.146;16.986;2023-04-15T11:33:35;14.10;1.00
10443;DHT22;5269;51.146;16.986;2023-04-15T11:36:04;14.30;1.00
10443;DHT22;5269;51.146;16.986;2023-04-15T11:38:33;14.60;1.00
10443;DHT22;5269;51.146;16.986;2023-04-15T11:41:00;15.00;1.00
10443;DHT22;5269;51.146;16.986;2023-04-15T11:43:31;15.30;1.00
10443;DHT22;5269;51.146;16.986;2023-04-15T11:46:01;15.40;1.00
10443;DHT22;5269;51.146;16.986;2023-04-15T11:48:29;15.30;1.00
10443;DHT22;5269;51.146;16.986;2023-04-15T11:50:58;14.90;1.00
10443;DHT22;5269;51.146;16.986;2023-04-15T11:53:37;15.20;1.00
10443;DHT22;5269;51.146;16.986;2023-04-15T11:56:06;14.60;1.00
10443;DHT22;5269;51.146;16.986;2023-04-15T11:58:34;14.50;1.00
10443;DHT22;5269;51.146;16.986;2023-04-15T12:01:03;14.20;1.00
10443;DHT22;5269;51.146;16.986;2023-04-15T12:03:36;14.00;1.00
10443;DHT22;5269;51.146;16.986;2023-04-15T12:06:09;13.70;1.00
10443;DHT22;5269;51.146;16.986;2023-04-15T12:09:09;14.10;1.00
10443;DHT22;5269;51.146;16.986;2023-04-15T12:11:41;14.10;1.00
10443;DHT22;5269;51.146;16.986;2023-04-15T12:14:10;14.20;1.00
10443;DHT22;5269;51.146;16.986;2023-04-15T12:16:40;14.40;1.00
10443;DHT22;5269;51.146;16.986;2023-04-15T12:19:10;14.70;1.00
10443;DHT22;5269;51.146;16.986;2023-04-15T12:21:39;14.60;1.00
10443;DHT22;5269;51.146;16.986;2023-04-15T12:24:09;14.00;1.00
10443;DHT22;5269;51.146;16.986;2023-04-15T12:26:42;14.30;1.00
10443;DHT22;5269;51.146;16.986;2023-04-15T12:29:10;14.40;1.00
10443;DHT22;5269;51.146;16.986;2023-04-15T12:31:46;14.80;1.00
10443;DHT22;5269;51.146;16.986;2023-04-15T12:34:14;14.90;1.00
10443;DHT22;5269;51.146;16.986;2023-04-15T12:36:41;14.40;1.00
10443;DHT22;5269;51.146;16.986;2023-04-15T12:39:09;14.20;1.00
10443;DHT22;5269;51.146;16.986;2023-04-15T12:41:36;14.00;1.00
10443;DHT22;5269;51.146;16.986;2023-04-15T12:44:03;13.90;1.00
10443;DHT22;5269;51.146;16.986;2023-04-15T12:46:30;14.00;1.00
10443;DHT22;5269;51.146;16.986;2023-04-15T12:48:57;13.80;1.00
10443;DHT22;5269;51.146;16.986;2023-04-15T12:51:24;13.80;1.00
10443;DHT22;5269;51.146;16.986;2023-04-15T12:53:51;13.60;1.00
10443;DHT22;5269;51.146;16.986;2023-04-15T12:56:20;13.80;1.00
10443;DHT22;5269;51.146;16.986;2023-04-15T12:58:47;13.90;1.00
10443;DHT22;5269;51.146;16.986;2023-04-15T13:01:14;14.10;1.00
10443;DHT22;5269;51.146;16.986;2023-04-15T13:03:40;14.50;1.00
10443;DHT22;5269;51.146;16.986;2023-04-15T13:06:07;14.80;1.00
10443;DHT22;5269;51.146;16.986;2023-04-15T13:08:34;14.80;1.00
10443;DHT22;5269;51.146;16.986;2023-04-15T13:11:01;14.90;1.00
10443;DHT22;5269;51.146;16.986;2023-04-15T13:13:30;15.10;1.00
10443;DHT22;5269;51.146;16.986;2023-04-15T13:15:57;15.20;1.00
10443;DHT22;5269;51.146;16.986;2023-04-15T13:18:24;15.30;1.00
10443;DHT22;5269;51.146;16.986;2023-04-15T13:20:51;15.40;1.00
10443;DHT22;5269;51.146;16.986;2023-04-15T13:23:18;15.40;1.00
10443;DHT22;5269;51.146;16.986;2023-04-15T13:25:45;15.40;1.00
10443;DHT22;5269;51.146;16.986;2023-04-15T13:28:12;15.60;1.00
10443;DHT22;5269;51.146;16.986;2023-04-15T13:30:40;15.40;1.00
10443;DHT22;5269;51.146;16.986;2023-04-15T13:33:08;15.30;1.00
10443;DHT22;5269;51.146;16.986;2023-04-15T13:35:35;15.30;1.00
10443;DHT22;5269;51.146;16.986;2023-04-15T13:38:02;15.40;1.00
10443;DHT22;5269;51.146;16.986;2023-04-15T13:40:29;15.40;1.00
10443;DHT22;5269;51.146;16.986;2023-04-15T13:42:56;15.50;1.00
10443;DHT22;5269;51.146;16.986;2023-04-15T13:45:24;15.50;1.00
10443;DHT22;5269;51.146;16.986;2023-04-15T13:47:52;15.70;1.00
10443;DHT22;5269;51.146;16.986;2023-04-15T13:50:24;15.00;1.00
10443;DHT22;5269;51.146;16.986;2023-04-15T13:52:52;15.30;1.00
10443;DHT22;5269;51.146;16.986;2023-04-15T13:55:19;15.80;1.00
10443;DHT22;5269;51.146;16.986;2023-04-15T13:57:46;16.00;1.00
10443;DHT22;5269;51.146;16.986;2023-04-15T14:00:13;16.00;1.00
10443;DHT22;5269;51.146;16.986;2023-04-15T14:02:40;15.70;1.00
10443;DHT22;5269;51.146;16.986;2023-04-15T14:05:09;15.80;1.00
10443;DHT22;5269;51.146;16.986;2023-04-15T14:07:36;15.90;1.00
10443;DHT22;5269;51.146;16.986;2023-04-15T14:10:04;16.20;1.00
10443;DHT22;5269;51.146;16.986;2023-04-15T14:12:31;16.30;1.00
10443;DHT22;5269;51.146;16.986;2023-04-15T14:14:58;16.60;1.00
10443;DHT22;5269;51.146;16.986;2023-04-15T14:17:25;16.40;1.00
10443;DHT22;5269;51.146;16.986;2023-04-15T14:19:52;16.30;1.00
10443;DHT22;5269;51.146;16.986;2023-04-15T14:22:20;16.30;1.00
10443;DHT22;5269;51.146;16.986;2023-04-15T14:24:47;16.30;1.00
10443;DHT22;5269;51.146;16.986;2023-04-15T14:27:14;16.30;1.00
10443;DHT22;5269;51.146;16.986;2023-04-15T14:29:41;16.60;1.00
10443;DHT22;5269;51.146;16.986;2023-04-15T14:32:08;16.70;1.00
10443;DHT22;5269;51.146;16.986;2023-04-15T14:34:35;16.60;1.00
10443;DHT22;5269;51.146;16.986;2023-04-15T14:37:03;16.20;1.00
10443;DHT22;5269;51.146;16.986;2023-04-15T14:39:32;16.00;1.00
10443;DHT22;5269;51.146;16.986;2023-04-15T14:41:59;15.70;1.00
10443;DHT22;5269;51.146;16.986;2023-04-15T14:44:26;15.40;1.00
10443;DHT22;5269;51.146;16.986;2023-04-15T14:46:53;15.30;1.00
10443;DHT22;5269;51.146;16.986;2023-04-15T14:49:22;15.50;1.00
10443;DHT22;5269;51.146;16.986;2023-04-15T14:51:53;15.70;1.00
10443;DHT22;5269;51.146;16.986;2023-04-15T14:54:20;15.80;1.00
10443;DHT22;5269;51.146;16.986;2023-04-15T14:56:48;15.90;1.00
10443;DHT22;5269;51.146;16.986;2023-04-15T14:59:15;15.60;1.00
10443;DHT22;5269;51.146;16.986;2023-04-15T15:01:42;15.50;1.00
10443;DHT22;5269;51.146;16.986;2023-04-15T15:04:09;15.70;1.00
10443;DHT22;5269;51.146;16.986;2023-04-15T15:06:36;15.80;1.00
10443;DHT22;5269;51.146;16.986;2023-04-15T15:09:03;15.90;1.00
10443;DHT22;5269;51.146;16.986;2023-04-15T15:11:30;16.00;1.00
10443;DHT22;5269;51.146;16.986;2023-04-15T15:13:58;16.00;1.00
10443;DHT22;5269;51.146;16.986;2023-04-15T15:16:26;16.00;1.00
10443;DHT22;5269;51.146;16.986;2023-04-15T15:18:54;15.80;1.00
10443;DHT22;5269;51.146;16.986;2023-04-15T15:21:20;15.80;1.00
10443;DHT22;5269;51.146;16.986;2023-04-15T15:23:47;15.70;1.00
10443;DHT22;5269;51.146;16.986;2023-04-15T15:26:14;15.60;1.00
10443;DHT22;5269;51.146;16.986;2023-04-15T15:28:42;15.50;1.00
10443;DHT22;5269;51.146;16.986;2023-04-15T15:31:11;15.80;1.00
10443;DHT22;5269;51.146;16.986;2023-04-15T15:33:38;15.90;1.00
10443;DHT22;5269;51.146;16.986;2023-04-15T15:36:05;16.30;1.00
10443;DHT22;5269;51.146;16.986;2023-04-15T15:38:32;16.30;1.00
10443;DHT22;5269;51.146;16.986;2023-04-15T15:40:59;16.20;1.00
10443;DHT22;5269;51.146;16.986;2023-04-15T15:43:26;15.80;1.00
10443;DHT22;5269;51.146;16.986;2023-04-15T15:45:53;15.50;1.00
10443;DHT22;5269;51.146;16.986;2023-04-15T15:48:22;15.60;1.00